Sandy Lake Airport
CZSJ : now visible

Airfield :











YOU CAN JOIN US ON...

 
LOGIN :

Register | Disclaimer

   EN    FR    IT 

 









Legend :    VFR   Marginal VFR   IFR   Intensive IFR   Very Intensive IFR
Visi :
Ceiling :
>= 8 km
>= 3000ft
5 to 8 km
1000 to 3000 ft
1500m to 5 km
500 to 1000 ft
800 to 1500m
200 to 500 ft
< 800m
< 200 ft
Symbols :   Thunderstorms  Fog  Heavy snow  Heavy precipitations  Wind > 20 kt






- Airport Elevation : 951 ft
- IATA code : ZSJ


CZSJ - Sandy Lake

CURRENT METAR :
  • 080222Z AUTO 32003KT 9SM CLR M31/M35 A2985 RMK SLP157

EXPIRED METARs :
  • 080213Z AUTO 00000KT 6SM -SN CLR M31/M34 A2986 RMK SLP157
  • 080156Z AUTO 29003KT 5SM HZ CLR M30/M33 A2986 RMK SLP156
  • 080138Z AUTO 34002KT 6SM HZ CLR M31/M34 A2986 RMK SLP159
  • 080136Z AUTO 33004KT 3SM HZ CLR M31/M34 A2986 RMK SLP158
  • 080126Z AUTO 29002KT 2 1/4SM HZ CLR M30/M33 A2986 RMK VIS VRB 1-3 SLP156
  • 080100Z AUTO 30003KT 9SM CLR M30/M32 A2986 RMK SLP155
  • 080000Z AUTO 00000KT 9SM CLR M27/M29 A2984 RMK SLP149

Expired Forecast.
CZWG FIR / North America



MET'MAP, your aeronautical weather chart ! - Copyright ORBIFLY December 2007 - Disclaimer

ORBIFLY MET'MAP TEAM :

Programming & Development : Alexandra Zaïnal
Concept & original design : Baudouin d'Aumeries
Assistance for programming : Marc-Olivier Méhu
Technical & hardware support : Manuel Goepfert

Contact : metmap@orbifly.com




SOURCES & CREDITS :

   NOAA       Earth
Advisory